Time;durP1;ratioP1;P1;durP2;ratioP2;P2;SDS_P1;SDS_P2;PMS_P1;PMS_P2;Temp;Humidity;BMP_temperature;BMP_pressure;BME280_temperature;BME280_humidity;BME280_pressure;Samples;Min_cycle;Max_cycle;Signal;HPM_P1;HPM_P2
2022/05/15 00:01:27;;;;;;;1.55;1.45;;;10.20;99.90;;;;;;6245801;22;20024;-87
2022/05/15 00:03:55;;;;;;;1.40;1.30;;;10.40;99.90;;;;;;6241112;22;20024;-87
2022/05/15 00:06:23;;;;;;;4.65;2.05;;;10.30;99.90;;;;;;6253473;23;20012;-87
2022/05/15 00:08:51;;;;;;;1.10;1.00;;;10.00;99.90;;;;;;6241019;23;20020;-88
2022/05/15 00:11:20;;;;;;;2.67;2.40;;;10.00;99.90;;;;;;6253632;23;20019;-87
2022/05/15 00:13:52;;;;;;;3.13;1.88;;;10.00;99.90;;;;;;6249914;22;20020;-88
2022/05/15 00:16:31;;;;;;;;;;;10.00;99.90;;;;;;6258365;22;20015;-90
2022/05/15 00:19:06;;;;;;;1.55;1.45;;;10.20;99.90;;;;;;6309750;22;19925;-88
2022/05/15 00:21:39;;;;;;;1.77;1.65;;;10.10;99.90;;;;;;6299092;22;20027;-89
2022/05/15 00:24:46;;;;;;;4.30;1.58;;;10.10;99.90;;;;;;6288769;22;20461;-88
2022/05/15 00:27:48;;;;;;;2.00;1.50;;;10.10;99.90;;;;;;6312324;22;20019;-88
2022/05/15 00:31:23;;;;;;;2.45;1.73;;;10.20;99.90;;;;;;6294376;22;20030;-89
2022/05/15 00:35:35;;;;;;;2.03;1.92;;;10.20;99.90;;;;;;6292700;22;20565;-89
2022/05/15 00:39:33;;;;;;;1.65;1.55;;;9.80;99.90;;;;;;6274201;22;20436;-89
2022/05/15 00:42:49;;;;;;;5.47;1.85;;;9.70;99.90;;;;;;6235089;22;20443;-89
2022/05/15 00:45:23;;;;;;;1.85;1.70;;;9.70;99.90;;;;;;6192420;22;20335;-89
2022/05/15 00:47:56;;;;;;;4.65;1.73;;;9.70;99.90;;;;;;6233399;22;20015;-91
2022/05/15 00:50:39;;;;;;;1.88;1.50;;;9.70;99.90;;;;;;6265090;22;20323;-91
2022/05/15 00:53:29;;;;;;;3.28;3.08;;;9.70;99.90;;;;;;6269594;22;20015;-91
2022/05/15 00:56:13;;;;;;;1.92;1.83;;;9.40;99.90;;;;;;6253710;22;20012;-92
2022/05/15 00:59:05;;;;;;;3.70;2.08;;;9.30;99.90;;;;;;6226808;22;20663;-91
2022/05/15 01:01:44;;;;;;;4.60;1.98;;;9.30;99.90;;;;;;6279629;22;20035;-91
2022/05/15 01:04:38;;;;;;;2.28;2.08;;;9.40;99.90;;;;;;6219610;22;20024;-91
2022/05/15 01:07:16;;;;;;;3.08;1.88;;;9.50;99.90;;;;;;6257971;22;20016;-91
2022/05/15 01:10:02;;;;;;;6.30;1.98;;;9.60;99.90;;;;;;6274249;22;20032;-91
2022/05/15 01:13:04;;;;;;;12.77;2.42;;;9.60;99.90;;;;;;6283107;22;20027;-91
2022/05/15 01:15:38;;;;;;;2.00;1.88;;;9.30;99.90;;;;;;6276112;22;20031;-90
2022/05/15 01:18:24;;;;;;;2.65;1.80;;;9.30;99.90;;;;;;6234626;22;20032;-91
2022/05/15 01:20:57;;;;;;;3.78;2.20;;;9.40;99.90;;;;;;6262671;22;20371;-88
2022/05/15 01:23:25;;;;;;;2.92;2.72;;;9.40;99.90;;;;;;6239365;22;20011;-88
2022/05/15 01:25:53;;;;;;;3.15;2.85;;;9.50;99.90;;;;;;6195505;22;20046;-88
2022/05/15 01:28:24;;;;;;;3.33;2.97;;;9.50;99.90;;;;;;6252864;22;20020;-87
2022/05/15 01:30:55;;;;;;;2.58;2.38;;;9.50;99.90;;;;;;6231086;22;20016;-87
2022/05/15 01:33:22;;;;;;;8.15;2.83;;;9.30;99.90;;;;;;6220627;22;20454;-87
2022/05/15 01:35:51;;;;;;;1.77;1.67;;;9.20;99.90;;;;;;6220895;22;20016;-87
2022/05/15 01:38:19;;;;;;;4.68;2.70;;;9.20;99.90;;;;;;6249633;22;20334;-88
2022/05/15 01:40:48;;;;;;;3.50;2.08;;;9.20;99.90;;;;;;6275787;22;20026;-88
2022/05/15 01:43:18;;;;;;;2.22;2.08;;;9.10;99.90;;;;;;6312554;22;20066;-88
2022/05/15 01:45:46;;;;;;;4.70;2.40;;;9.00;99.90;;;;;;6225795;22;20034;-88
2022/05/15 01:48:15;;;;;;;3.47;3.17;;;9.00;99.90;;;;;;6261033;22;20015;-88
2022/05/15 01:50:43;;;;;;;2.70;2.50;;;9.00;99.90;;;;;;6227772;22;20020;-88
2022/05/15 01:53:19;;;;;;;2.72;2.53;;;9.00;99.90;;;;;;6276820;22;20446;-88
2022/05/15 01:55:52;;;;;;;3.60;3.33;;;9.00;99.90;;;;;;6263321;22;20007;-88
2022/05/15 01:58:20;;;;;;;2.25;1.98;;;8.90;99.90;;;;;;6251997;22;20505;-88
2022/05/15 02:00:48;;;;;;;2.28;2.08;;;8.80;99.90;;;;;;6277406;22;20022;-87
2022/05/15 02:03:16;;;;;;;3.35;3.15;;;8.70;99.90;;;;;;6263078;22;20483;-87
2022/05/15 02:05:44;;;;;;;2.53;2.42;;;8.70;99.90;;;;;;6254988;22;20016;-87
2022/05/15 02:08:12;;;;;;;2.83;2.63;;;8.50;99.90;;;;;;6311577;22;20497;-88
2022/05/15 02:10:39;;;;;;;2.70;2.50;;;8.40;99.90;;;;;;6315695;22;20022;-88
2022/05/15 02:13:07;;;;;;;3.58;3.30;;;8.40;99.90;;;;;;6282249;22;20027;-85
2022/05/15 02:15:35;;;;;;;3.90;3.60;;;8.40;99.90;;;;;;6315833;22;20018;-88
2022/05/15 02:18:06;;;;;;;3.28;2.90;;;8.40;99.90;;;;;;6278826;22;20027;-87
2022/05/15 02:20:34;;;;;;;4.00;3.65;;;8.60;99.90;;;;;;6310717;22;20023;-87
2022/05/15 02:23:02;;;;;;;4.05;3.75;;;8.70;99.90;;;;;;6271604;22;20023;-85
2022/05/15 02:25:31;;;;;;;6.70;3.40;;;8.80;99.90;;;;;;6195830;22;20031;-85
2022/05/15 02:28:00;;;;;;;9.15;2.28;;;8.90;99.90;;;;;;6231316;22;20016;-85
2022/05/15 02:30:28;;;;;;;2.92;2.67;;;8.90;99.90;;;;;;6232818;22;20027;-85
2022/05/15 02:32:56;;;;;;;4.97;4.57;;;8.80;99.90;;;;;;6221134;22;20020;-85
2022/05/15 02:35:24;;;;;;;5.22;3.22;;;8.80;99.90;;;;;;6232333;22;20016;-85
2022/05/15 02:37:52;;;;;;;3.45;3.15;;;8.80;99.90;;;;;;6247483;22;20027;-85
2022/05/15 02:40:22;;;;;;;3.13;2.83;;;8.80;99.90;;;;;;6221430;22;20016;-85
2022/05/15 02:42:51;;;;;;;3.63;3.33;;;8.90;99.90;;;;;;6284576;22;20008;-85
2022/05/15 02:45:19;;;;;;;5.80;3.38;;;8.90;99.90;;;;;;6221610;22;20019;-85
2022/05/15 02:47:47;;;;;;;6.57;3.20;;;8.80;99.90;;;;;;6231460;22;20012;-85
2022/05/15 02:53:02;;;;;;;6.30;4.32;;;8.70;99.90;;;;;;6250896;22;20034;-85
2022/05/15 02:55:29;;;;;;;4.40;3.35;;;8.80;99.90;;;;;;6282907;22;20026;-88
2022/05/15 02:57:57;;;;;;;4.38;3.70;;;8.90;99.90;;;;;;6215715;23;20032;-87
2022/05/15 03:00:27;;;;;;;4.50;4.20;;;9.00;99.90;;;;;;6242476;23;20020;-87
2022/05/15 03:02:55;;;;;;;5.32;3.17;;;9.00;99.90;;;;;;6282117;22;20019;-85
2022/05/15 03:05:28;;;;;;;6.30;5.13;;;8.90;99.90;;;;;;6277260;22;20545;-86
2022/05/15 03:07:56;;;;;;;6.15;4.63;;;8.60;99.90;;;;;;6248981;23;20015;-85
2022/05/15 03:10:24;;;;;;;5.63;5.20;;;8.50;99.90;;;;;;6179997;23;20019;-85
2022/05/15 03:12:52;;;;;;;9.95;5.43;;;8.50;99.90;;;;;;6247566;22;20024;-85
2022/05/15 03:15:20;;;;;;;9.02;6.10;;;8.50;99.90;;;;;;6253382;23;20339;-87
2022/05/15 03:17:48;;;;;;;8.30;6.05;;;8.60;99.90;;;;;;6242813;22;20024;-87
2022/05/15 03:20:18;;;;;;;9.18;6.75;;;8.70;99.90;;;;;;6249369;22;20016;-85
2022/05/15 03:22:47;;;;;;;9.18;7.15;;;8.80;99.90;;;;;;6266061;22;20007;-85
2022/05/15 03:25:16;;;;;;;5.70;5.18;;;8.90;99.90;;;;;;6277810;22;20026;-85
2022/05/15 03:27:43;;;;;;;21.30;6.78;;;9.00;99.90;;;;;;6281797;22;20015;-85
2022/05/15 03:30:13;;;;;;;7.10;6.38;;;9.00;99.90;;;;;;6221246;22;20026;-85
2022/05/15 03:32:41;;;;;;;7.97;5.63;;;9.00;99.90;;;;;;6221025;22;20028;-85
2022/05/15 03:35:09;;;;;;;6.32;5.25;;;8.90;99.90;;;;;;6282776;22;20016;-85
2022/05/15 03:37:37;;;;;;;8.23;6.05;;;8.80;99.90;;;;;;6273709;22;20028;-85
2022/05/15 03:40:07;;;;;;;7.15;5.97;;;8.70;99.90;;;;;;6280964;22;20016;-84
2022/05/15 03:42:34;;;;;;;7.72;7.03;;;8.60;99.90;;;;;;6284243;22;20016;-85
2022/05/15 03:45:03;;;;;;;7.10;6.40;;;8.60;99.90;;;;;;6276588;22;20023;-85
2022/05/15 03:47:31;;;;;;;7.32;6.57;;;8.80;99.90;;;;;;6221072;22;20019;-85
2022/05/15 03:50:04;;;;;;;14.15;8.27;;;8.80;99.90;;;;;;6273790;22;20493;-85
2022/05/15 03:52:31;;;;;;;13.73;7.82;;;8.70;99.90;;;;;;6244325;22;20023;-85
2022/05/15 03:54:59;;;;;;;12.93;6.88;;;8.80;99.90;;;;;;6246497;22;20034;-85
2022/05/15 03:57:27;;;;;;;6.72;5.97;;;8.80;99.90;;;;;;6246275;22;20024;-85
2022/05/15 03:59:54;;;;;;;6.68;6.05;;;8.90;99.90;;;;;;6256266;22;20018;-85
2022/05/15 04:02:22;;;;;;;10.45;7.57;;;8.70;99.90;;;;;;6282691;22;20019;-84
2022/05/15 04:04:50;;;;;;;6.50;5.80;;;8.80;99.90;;;;;;6278029;22;20012;-84
2022/05/15 04:07:18;;;;;;;20.55;10.00;;;8.80;99.90;;;;;;6307185;22;20022;-84
2022/05/15 04:09:46;;;;;;;8.68;7.88;;;8.90;99.90;;;;;;6273196;22;20321;-84
2022/05/15 04:12:14;;;;;;;5.13;4.65;;;9.00;99.90;;;;;;6271543;22;20038;-85
2022/05/15 04:14:42;;;;;;;8.73;7.70;;;8.90;99.90;;;;;;6282354;22;20470;-84
2022/05/15 04:17:10;;;;;;;6.63;5.93;;;8.90;99.90;;;;;;6275520;22;20019;-84
2022/05/15 04:19:38;;;;;;;7.82;6.30;;;9.00;99.90;;;;;;6281476;22;20328;-84
2022/05/15 04:22:12;;;;;;;9.63;8.65;;;9.10;99.90;;;;;;6255147;22;20028;-87
2022/05/15 04:24:40;;;;;;;11.18;7.18;;;9.20;99.90;;;;;;6215304;23;20026;-84
2022/05/15 04:27:08;;;;;;;9.50;8.20;;;9.10;99.90;;;;;;6241189;23;20331;-84
2022/05/15 04:29:35;;;;;;;17.55;8.65;;;9.20;99.90;;;;;;6215203;23;20034;-84
2022/05/15 04:32:03;;;;;;;6.90;6.28;;;9.30;99.90;;;;;;6238247;22;20012;-84
2022/05/15 04:34:31;;;;;;;14.00;9.48;;;9.50;99.90;;;;;;6241296;23;20016;-84
2022/05/15 04:36:59;;;;;;;10.38;9.32;;;9.60;99.90;;;;;;6228068;23;20027;-84
2022/05/15 04:39:27;;;;;;;14.73;8.73;;;9.70;99.90;;;;;;6251133;23;20019;-87
2022/05/15 04:41:54;;;;;;;11.57;10.48;;;9.80;99.90;;;;;;6239896;22;20371;-88
2022/05/15 04:44:22;;;;;;;9.77;8.88;;;10.10;99.90;;;;;;6250154;23;20020;-84
2022/05/15 04:46:50;;;;;;;8.77;7.88;;;10.30;99.90;;;;;;6225391;23;20023;-84
2022/05/15 04:49:19;;;;;;;10.88;7.32;;;10.50;99.90;;;;;;6264271;22;20019;-84
2022/05/15 04:51:47;;;;;;;9.98;8.90;;;10.70;99.90;;;;;;6218909;22;20020;-84
2022/05/15 04:54:15;;;;;;;9.00;6.22;;;10.80;99.90;;;;;;6245685;22;20027;-84
2022/05/15 04:56:42;;;;;;;8.70;7.85;;;11.10;99.90;;;;;;6195183;22;20020;-84
2022/05/15 04:59:10;;;;;;;11.00;8.93;;;11.40;99.90;;;;;;6220357;22;20466;-84
2022/05/15 05:01:38;;;;;;;9.23;8.43;;;11.80;99.90;;;;;;6265960;22;20020;-85
2022/05/15 05:04:05;;;;;;;11.48;9.10;;;12.10;99.90;;;;;;6251933;22;20446;-84
2022/05/15 05:06:37;;;;;;;9.15;7.93;;;12.50;99.90;;;;;;6251352;23;20016;-84
2022/05/15 05:09:05;;;;;;;11.23;9.70;;;12.70;99.90;;;;;;6246752;23;20031;-87
2022/05/15 05:11:33;;;;;;;9.07;7.55;;;12.70;99.90;;;;;;6261249;22;20028;-87
2022/05/15 05:14:00;;;;;;;8.07;7.28;;;13.00;99.90;;;;;;6242409;22;20029;-87
2022/05/15 05:16:28;;;;;;;10.18;7.43;;;13.50;99.90;;;;;;6241992;23;20035;-87
2022/05/15 05:18:56;;;;;;;8.40;7.45;;;13.90;99.90;;;;;;6251197;23;20018;-88
2022/05/15 05:21:24;;;;;;;10.48;9.40;;;14.30;99.90;;;;;;6249621;22;20058;-88
2022/05/15 05:23:52;;;;;;;10.07;8.55;;;14.60;99.90;;;;;;6221234;22;20023;-87
2022/05/15 05:26:20;;;;;;;8.15;7.35;;;14.90;99.90;;;;;;6254613;23;20016;-87
2022/05/15 05:28:48;;;;;;;10.70;8.43;;;15.00;99.90;;;;;;6250064;22;20343;-88
2022/05/15 05:31:16;;;;;;;9.18;7.50;;;15.20;99.90;;;;;;6217149;23;20028;-88
2022/05/15 05:33:44;;;;;;;11.55;8.25;;;15.40;99.90;;;;;;6244796;22;20024;-88
2022/05/15 05:36:12;;;;;;;10.00;7.15;;;15.60;99.90;;;;;;6250257;22;20016;-88
2022/05/15 05:38:40;;;;;;;10.65;9.60;;;15.70;99.90;;;;;;6252886;23;20016;-88
2022/05/15 05:41:08;;;;;;;7.85;7.15;;;15.80;99.90;;;;;;6222041;23;20335;-88
2022/05/15 05:43:35;;;;;;;7.53;6.82;;;16.00;99.90;;;;;;6252697;23;20023;-88
2022/05/15 05:46:04;;;;;;;8.20;7.50;;;16.00;99.90;;;;;;6244011;22;20024;-87
2022/05/15 05:48:31;;;;;;;9.23;8.25;;;16.10;99.90;;;;;;6209620;23;20031;-88
2022/05/15 05:50:59;;;;;;;7.32;6.63;;;16.30;99.90;;;;;;6249787;22;20019;-87
2022/05/15 05:53:27;;;;;;;9.70;6.53;;;16.40;99.90;;;;;;6238884;22;20078;-88
2022/05/15 05:55:55;;;;;;;9.05;7.13;;;16.50;99.90;;;;;;6188906;22;20023;-87
2022/05/15 05:58:23;;;;;;;8.65;7.72;;;16.80;99.90;;;;;;6249800;23;20008;-87
2022/05/15 06:00:50;;;;;;;17.80;8.32;;;16.90;99.90;;;;;;6247495;22;20020;-88
2022/05/15 06:06:04;;;;;;;7.55;6.15;;;17.40;99.90;;;;;;6237423;23;20447;-87
2022/05/15 06:08:32;;;;;;;6.55;5.72;;;17.60;99.90;;;;;;6248121;22;20031;-88
2022/05/15 06:11:00;;;;;;;6.68;5.97;;;17.60;99.90;;;;;;6251913;23;20016;-88
2022/05/15 06:13:28;;;;;;;6.80;6.18;;;17.80;99.90;;;;;;6239308;23;20020;-88
2022/05/15 06:15:56;;;;;;;7.55;5.80;;;18.00;99.90;;;;;;6252378;22;20008;-88
2022/05/15 06:18:24;;;;;;;6.82;6.18;;;18.10;99.90;;;;;;6191459;23;20443;-88
2022/05/15 06:20:51;;;;;;;8.20;6.38;;;18.30;99.90;;;;;;6247601;22;20031;-88
2022/05/15 06:23:20;;;;;;;6.82;5.95;;;18.40;99.90;;;;;;6270449;22;20327;-87
2022/05/15 06:25:47;;;;;;;8.45;6.35;;;18.80;99.90;;;;;;6276215;22;20349;-88
2022/05/15 06:28:15;;;;;;;9.57;4.88;;;19.00;99.90;;;;;;6246308;22;20016;-88
2022/05/15 06:30:43;;;;;;;5.68;5.18;;;19.10;99.90;;;;;;6221987;22;20023;-88
2022/05/15 06:33:11;;;;;;;6.22;5.72;;;19.00;99.90;;;;;;6277007;22;20020;-85
2022/05/15 06:35:44;;;;;;;5.38;4.70;;;19.10;99.90;;;;;;6284572;22;20011;-85
2022/05/15 06:38:12;;;;;;;6.68;5.95;;;19.10;99.90;;;;;;6245423;22;20031;-85
2022/05/15 06:40:40;;;;;;;8.90;5.63;;;19.20;99.90;;;;;;6270963;22;20039;-86
2022/05/15 06:43:07;;;;;;;7.13;6.53;;;19.20;99.90;;;;;;6284753;22;20315;-88
2022/05/15 06:45:36;;;;;;;6.03;5.50;;;19.30;99.90;;;;;;6276555;22;20031;-88
2022/05/15 06:48:04;;;;;;;6.78;5.30;;;19.00;99.90;;;;;;6280832;22;20034;-85
2022/05/15 06:50:32;;;;;;;6.65;6.13;;;18.70;99.90;;;;;;6272462;22;20023;-86
2022/05/15 06:53:00;;;;;;;7.43;5.50;;;18.80;99.90;;;;;;6276285;22;20351;-86
2022/05/15 06:55:28;;;;;;;6.88;6.15;;;19.00;99.90;;;;;;6273713;22;20322;-86
2022/05/15 06:57:56;;;;;;;10.52;6.28;;;19.30;99.90;;;;;;6246622;22;20016;-86
2022/05/15 07:00:27;;;;;;;6.93;5.75;;;18.80;99.90;;;;;;6280094;22;20015;-86
2022/05/15 07:02:55;;;;;;;;;;;18.40;99.90;;;;;;6284762;22;20062;-86
2022/05/15 07:05:25;;;;;;;8.20;4.32;;;18.20;99.90;;;;;;6275634;22;19923;-86
2022/05/15 07:07:53;;;;;;;5.72;5.18;;;18.40;99.90;;;;;;6282549;22;20015;-85
2022/05/15 07:10:22;;;;;;;9.65;6.15;;;18.70;99.90;;;;;;6282608;22;20027;-85
2022/05/15 07:12:50;;;;;;;5.97;5.47;;;19.00;99.90;;;;;;6271593;22;20027;-89
2022/05/15 07:15:18;;;;;;;8.05;6.05;;;19.20;99.90;;;;;;6247052;22;20023;-89
2022/05/15 07:17:45;;;;;;;6.53;4.85;;;19.50;99.90;;;;;;6275167;22;20020;-85
2022/05/15 07:20:13;;;;;;;7.43;6.82;;;19.90;99.90;;;;;;6280419;22;20012;-89
2022/05/15 07:22:45;;;;;;;5.97;5.38;;;20.00;99.90;;;;;;6252814;22;20020;-86
2022/05/15 07:25:13;;;;;;;7.13;6.32;;;19.90;99.90;;;;;;6246595;23;20032;-86
2022/05/15 07:27:41;;;;;;;6.40;5.80;;;19.90;99.90;;;;;;6253279;23;20012;-90
2022/05/15 07:30:09;;;;;;;6.88;6.28;;;19.90;99.90;;;;;;6244370;22;20020;-85
2022/05/15 07:32:43;;;;;;;6.13;5.57;;;19.70;99.90;;;;;;6271043;22;20449;-86
2022/05/15 07:35:11;;;;;;;7.38;6.57;;;19.40;99.90;;;;;;6222090;22;20031;-85
2022/05/15 07:37:39;;;;;;;9.52;5.45;;;19.30;99.90;;;;;;6242310;22;20501;-85
2022/05/15 07:40:07;;;;;;;6.72;5.90;;;19.30;99.90;;;;;;6251591;22;20016;-85
2022/05/15 07:42:36;;;;;;;7.25;5.57;;;19.30;99.90;;;;;;6247310;23;20031;-85
2022/05/15 07:45:05;;;;;;;6.85;4.60;;;19.50;99.90;;;;;;6233873;23;20017;-83
2022/05/15 07:47:37;;;;;;;7.15;4.68;;;19.80;99.90;;;;;;6252437;23;20019;-86
2022/05/15 07:50:14;;;;;;;6.85;5.50;;;20.20;99.90;;;;;;6205773;23;20344;-87
2022/05/15 07:52:48;;;;;;;10.85;4.85;;;20.40;99.90;;;;;;6208922;23;20020;-88
2022/05/15 07:55:19;;;;;;;5.40;4.93;;;20.40;99.90;;;;;;6208728;23;20027;-92
2022/05/15 07:57:55;;;;;;;5.43;4.85;;;20.30;99.90;;;;;;6215355;23;20028;-92
2022/05/15 08:00:46;;;;;;;12.65;5.07;;;19.80;99.90;;;;;;6204265;22;20027;-93
2022/05/15 08:03:16;;;;;;;6.70;5.72;;;19.80;99.90;;;;;;6216004;23;20012;-91
2022/05/15 08:08:36;;;;;;;7.70;6.70;;;20.20;99.90;;;;;;6240398;22;20031;-90
2022/05/15 08:11:04;;;;;;;8.77;6.93;;;20.30;99.90;;;;;;6240096;23;20304;-90
2022/05/15 08:13:33;;;;;;;9.15;5.97;;;20.30;99.90;;;;;;6214126;23;20032;-89
2022/05/15 08:16:03;;;;;;;5.85;5.20;;;20.30;99.90;;;;;;6228214;22;20020;-90
2022/05/15 08:24:14;;;;;;;4.50;4.03;;;20.50;99.90;;;;;;6282908;22;20461;-86
2022/05/15 08:26:47;;;;;;;4.75;4.25;;;20.60;99.90;;;;;;6223144;22;20020;-87
2022/05/15 08:29:20;;;;;;;4.75;4.18;;;20.70;99.90;;;;;;6276230;22;20030;-89
2022/05/15 08:31:51;;;;;;;8.15;5.15;;;20.70;99.90;;;;;;6246018;22;20015;-88
2022/05/15 08:35:21;;;;;;;8.10;4.15;;;20.80;99.90;;;;;;6220238;22;20023;-95
2022/05/15 08:38:29;;;;;;;5.18;2.80;;;20.80;99.90;;;;;;6253581;22;20024;-90
2022/05/15 08:41:45;;;;;;;3.75;3.33;;;20.80;99.90;;;;;;6224424;22;20031;-91
2022/05/15 08:44:55;;;;;;;6.38;2.80;;;20.80;99.90;;;;;;6209233;22;20016;-91
2022/05/15 08:48:03;;;;;;;4.60;2.60;;;20.80;99.90;;;;;;6208730;23;20027;-89
2022/05/15 08:51:26;;;;;;;5.45;2.88;;;20.50;99.90;;;;;;6244873;22;20455;-89
2022/05/15 08:54:43;;;;;;;2.70;2.50;;;20.50;99.90;;;;;;6242426;22;20023;-91
2022/05/15 08:57:40;;;;;;;3.95;3.15;;;20.60;99.90;;;;;;6199183;22;20021;-90
2022/05/15 09:00:57;;;;;;;3.72;3.28;;;20.70;99.90;;;;;;6129127;22;20020;-89
2022/05/15 09:03:50;;;;;;;6.72;3.38;;;20.50;99.90;;;;;;6169277;23;20523;-91
2022/05/15 09:11:49;;;;;;;6.32;3.53;;;20.80;99.90;;;;;;6011854;23;20398;31
2022/05/15 09:14:43;;;;;;;4.05;3.47;;;21.00;99.90;;;;;;6059981;23;20023;-90
2022/05/15 09:17:30;;;;;;;3.67;2.60;;;21.00;99.90;;;;;;6088114;23;20030;-89
2022/05/15 09:20:47;;;;;;;5.78;3.38;;;21.00;99.90;;;;;;6008435;23;20031;-89
2022/05/15 09:23:38;;;;;;;3.50;1.75;;;20.90;99.90;;;;;;5998072;23;20024;-90
2022/05/15 09:26:15;;;;;;;8.13;3.28;;;20.90;99.90;;;;;;5963056;23;20028;-89
2022/05/15 09:28:51;;;;;;;3.67;2.60;;;20.80;99.90;;;;;;5991792;23;20385;-88
2022/05/15 09:31:45;;;;;;;5.20;3.05;;;20.90;99.90;;;;;;6032824;23;20026;-90
2022/05/15 09:34:31;;;;;;;2.90;2.67;;;20.90;99.90;;;;;;6031957;23;20027;-86
2022/05/15 09:39:52;;;;;;;5.53;2.95;;;21.00;99.90;;;;;;6042725;23;20019;-88
2022/05/15 09:45:55;;;;;;;4.80;2.35;;;21.10;99.80;;;;;;6032529;23;20027;-87
2022/05/15 09:48:33;;;;;;;6.28;1.90;;;21.00;99.90;;;;;;6055684;23;20023;-89
2022/05/15 09:51:04;;;;;;;2.10;1.85;;;21.10;98.90;;;;;;6061707;23;20026;-88
2022/05/15 09:53:41;;;;;;;2.80;2.40;;;21.20;99.90;;;;;;6086553;23;20356;-86
2022/05/15 09:56:20;;;;;;;3.47;1.85;;;21.20;99.90;;;;;;6101450;23;20014;-83
2022/05/15 09:59:14;;;;;;;5.05;2.78;;;21.30;99.90;;;;;;6090698;23;20014;-89
2022/05/15 10:02:02;;;;;;;2.17;1.88;;;21.30;99.80;;;;;;6056929;23;20018;-84
2022/05/15 10:04:40;;;;;;;2.17;1.98;;;21.20;99.90;;;;;;6098230;23;20450;-88
2022/05/15 10:07:09;;;;;;;5.80;2.33;;;21.30;97.20;;;;;;6102819;23;20334;-90
2022/05/15 10:09:40;;;;;;;2.38;2.17;;;21.20;97.10;;;;;;6078965;23;20042;-89
2022/05/15 10:12:27;;;;;;;6.13;2.53;;;21.20;99.90;;;;;;6042716;23;20027;-89
2022/05/15 10:15:12;;;;;;;12.15;3.28;;;21.20;99.90;;;;;;6053938;23;20018;-90
2022/05/15 10:17:54;;;;;;;5.93;2.60;;;21.30;99.90;;;;;;6089278;23;20027;-87
2022/05/15 10:20:34;;;;;;;2.30;1.80;;;21.30;99.80;;;;;;6074004;23;20023;-90
2022/05/15 10:23:28;;;;;;;3.30;2.35;;;21.40;98.10;;;;;;6064015;23;20328;-86
2022/05/15 10:26:09;;;;;;;1.98;1.88;;;21.30;96.10;;;;;;6087799;23;20035;-91
2022/05/15 10:28:48;;;;;;;5.55;2.55;;;21.20;98.60;;;;;;6049392;23;20521;-85
2022/05/15 10:31:28;;;;;;;2.55;2.28;;;21.10;98.90;;;;;;6074015;23;20030;-86
2022/05/15 10:34:01;;;;;;;6.20;2.17;;;21.20;98.50;;;;;;6091617;23;20030;-87
2022/05/15 10:36:47;;;;;;;6.70;2.92;;;21.30;98.40;;;;;;6085565;23;20033;-85
2022/05/15 10:39:24;;;;;;;2.05;1.75;;;21.40;99.70;;;;;;6079345;23;20023;-85
2022/05/15 10:41:55;;;;;;;4.00;2.15;;;21.50;98.00;;;;;;6068045;23;20045;-86
2022/05/15 10:44:29;;;;;;;;;;;21.50;98.40;;;;;;6100730;23;20029;-82
2022/05/15 10:47:03;;;;;;;2.55;2.05;;;21.50;97.80;;;;;;6104094;23;19948;-86
2022/05/15 11:00:10;;;;;;;1.90;1.77;;;21.60;97.10;;;;;;6095142;23;20026;-87
2022/05/15 11:03:21;;;;;;;11.38;2.78;;;21.70;96.90;;;;;;6034632;23;20035;-83
2022/05/15 11:06:20;;;;;;;7.25;2.50;;;21.70;98.60;;;;;;5949860;23;20162;-83
2022/05/15 11:09:01;;;;;;;2.08;1.90;;;21.80;99.90;;;;;;6010204;23;20030;-83
2022/05/15 11:11:50;;;;;;;5.15;2.20;;;21.90;99.50;;;;;;5988902;23;20020;-83
2022/05/15 11:14:42;;;;;;;10.88;2.78;;;21.80;98.10;;;;;;6023165;23;20023;-83
2022/05/15 11:17:34;;;;;;;2.63;1.92;;;21.80;99.70;;;;;;5969312;23;20031;-83
2022/05/15 11:20:09;;;;;;;2.33;2.13;;;21.80;99.90;;;;;;6008547;23;20024;-83
2022/05/15 11:22:59;;;;;;;7.38;2.90;;;22.00;99.60;;;;;;5975248;24;20361;-84
2022/05/15 11:25:49;;;;;;;2.70;2.35;;;22.10;99.60;;;;;;5974064;23;20487;-86
2022/05/15 11:28:40;;;;;;;5.88;2.70;;;22.10;97.50;;;;;;5977324;23;20028;-88
2022/05/15 11:31:14;;;;;;;2.63;2.42;;;22.00;97.60;;;;;;5960279;23;20023;-84
2022/05/15 11:34:01;;;;;;;4.13;2.92;;;22.00;99.30;;;;;;6037395;23;20526;-87
2022/05/15 11:36:38;;;;;;;3.35;2.58;;;22.00;99.10;;;;;;6114681;23;20468;-91
2022/05/15 11:39:25;;;;;;;7.00;3.47;;;21.90;96.70;;;;;;6092539;23;20345;-87
2022/05/15 11:42:13;;;;;;;4.63;2.50;;;21.90;99.90;;;;;;6056139;23;20023;-84
2022/05/15 11:44:48;;;;;;;2.88;1.70;;;22.10;98.10;;;;;;6066715;23;20018;-88
2022/05/15 11:47:32;;;;;;;6.15;2.22;;;22.10;96.40;;;;;;6067117;23;20022;-84
2022/05/15 11:50:00;;;;;;;4.22;2.50;;;22.00;97.20;;;;;;6066676;23;20022;-84
2022/05/15 11:52:39;;;;;;;2.50;2.28;;;22.00;97.30;;;;;;6088314;23;20385;-86
2022/05/15 11:55:31;;;;;;;2.38;2.20;;;22.10;98.00;;;;;;6100874;23;20018;-89
2022/05/15 11:58:20;;;;;;;5.13;2.63;;;22.10;97.10;;;;;;6064341;23;20335;-88
2022/05/15 12:01:04;;;;;;;3.65;2.30;;;22.20;99.90;;;;;;6089964;23;20477;-87
2022/05/15 12:03:46;;;;;;;3.60;2.47;;;22.20;97.00;;;;;;6116940;23;20018;-88
2022/05/15 12:06:42;;;;;;;6.88;2.40;;;22.20;97.80;;;;;;6044252;23;20030;-86
2022/05/15 12:09:16;;;;;;;2.22;2.03;;;22.10;97.30;;;;;;6066017;23;20482;-87
2022/05/15 12:11:46;;;;;;;2.53;2.13;;;22.20;99.10;;;;;;6098719;23;20023;-86
2022/05/15 12:14:26;;;;;;;3.43;3.03;;;22.20;97.40;;;;;;6067569;23;20023;-89
2022/05/15 12:17:28;;;;;;;2.67;2.17;;;22.20;95.60;;;;;;6066577;23;20037;-88
2022/05/15 12:20:15;;;;;;;3.25;1.92;;;22.10;97.10;;;;;;6100531;23;20014;-87
2022/05/15 12:22:54;;;;;;;7.38;2.45;;;22.20;99.60;;;;;;6077544;23;20019;-88
2022/05/15 12:25:32;;;;;;;2.50;2.30;;;22.30;95.20;;;;;;6091602;23;20250;-86
2022/05/15 12:31:23;;;;;;;7.43;3.08;;;22.40;96.10;;;;;;6100924;23;20014;-87
2022/05/15 12:34:20;;;;;;;7.03;3.17;;;22.50;96.80;;;;;;6092239;23;20022;-85
2022/05/15 12:37:06;;;;;;;8.25;3.92;;;22.50;99.90;;;;;;6038699;23;20019;-87
2022/05/15 12:39:37;;;;;;;6.05;2.47;;;22.60;96.80;;;;;;6074324;23;20316;-85
2022/05/15 13:20:36;;;;;;;5.97;2.08;;;22.80;93.90;;;;;;6123935;23;20467;-88
2022/05/15 13:23:05;;;;;;;2.20;1.90;;;23.00;93.70;;;;;;6114553;23;20025;-86
2022/05/15 13:26:06;;;;;;;2.03;1.80;;;23.00;95.20;;;;;;6146796;23;20014;-83
2022/05/15 13:44:09;;;;;;;2.33;2.13;;;23.10;96.40;;;;;;6200102;22;20028;-87
2022/05/15 13:46:43;;;;;;;3.42;2.15;;;23.10;93.70;;;;;;6191952;22;20020;-86
2022/05/15 13:49:14;;;;;;;1.80;1.70;;;23.10;91.90;;;;;;6275667;22;20043;-86
2022/05/15 13:51:46;;;;;;;;;;;23.10;97.80;;;;;;6253981;22;20014;-88
2022/05/15 13:54:23;;;;;;;1.60;1.50;;;23.20;91.20;;;;;;6219434;22;19919;-86
2022/05/15 13:57:00;;;;;;;1.35;1.25;;;23.20;93.70;;;;;;6248169;22;20024;-89
2022/05/15 13:59:41;;;;;;;2.55;2.15;;;23.20;93.50;;;;;;6229926;22;20023;-86
2022/05/15 14:02:21;;;;;;;2.03;1.83;;;23.40;92.90;;;;;;6245824;22;20030;-86
2022/05/15 14:05:10;;;;;;;1.95;1.85;;;23.40;92.80;;;;;;6250396;22;20316;-85
2022/05/15 14:07:43;;;;;;;8.55;2.50;;;23.40;92.20;;;;;;6267886;22;20012;-86
2022/05/15 14:10:18;;;;;;;2.03;1.60;;;23.40;92.50;;;;;;6194717;22;20342;-86
2022/05/15 14:13:08;;;;;;;2.58;1.80;;;23.40;92.30;;;;;;6275316;22;20278;-87
2022/05/15 14:15:40;;;;;;;;;;;23.30;89.10;;;;;;6255617;22;20011;-85
2022/05/15 14:18:34;;;;;;;2.95;1.88;;;23.30;90.00;;;;;;6271036;22;20311;-88
2022/05/15 14:21:21;;;;;;;3.20;1.35;;;23.30;88.60;;;;;;6215356;22;20034;-89
2022/05/15 14:23:49;;;;;;;4.18;1.75;;;23.30;90.50;;;;;;6227214;22;20016;-85
2022/05/15 14:26:26;;;;;;;1.85;1.67;;;23.40;92.60;;;;;;6218695;22;20051;-88
2022/05/15 14:28:54;;;;;;;4.13;1.83;;;23.50;91.00;;;;;;6217359;22;20372;-86
2022/05/15 14:32:21;;;;;;;3.50;2.03;;;23.50;88.50;;;;;;6264648;22;20316;-93
2022/05/15 14:34:54;;;;;;;1.75;1.50;;;23.40;87.00;;;;;;6220721;22;20012;-88
2022/05/15 14:37:23;;;;;;;1.73;1.60;;;23.30;88.60;;;;;;6204210;23;20028;-89
2022/05/15 14:39:53;;;;;;;3.05;2.40;;;23.40;89.50;;;;;;6215203;22;20022;-88
2022/05/15 14:42:22;;;;;;;1.52;1.45;;;23.30;90.00;;;;;;6197765;22;20020;-87
2022/05/15 14:44:57;;;;;;;2.25;2.05;;;23.30;89.50;;;;;;6252073;22;20020;-86
2022/05/15 14:47:32;;;;;;;16.48;2.65;;;23.40;90.30;;;;;;6246840;22;20339;-86
2022/05/15 14:50:04;;;;;;;8.10;1.92;;;23.50;86.70;;;;;;6245674;22;20023;-86
2022/05/15 14:52:37;;;;;;;1.75;1.65;;;23.40;87.00;;;;;;6226700;22;20027;-88
2022/05/15 14:55:06;;;;;;;7.05;1.88;;;23.40;87.50;;;;;;6257735;22;20023;-90
2022/05/15 14:57:42;;;;;;;5.60;2.15;;;23.50;90.20;;;;;;6198187;22;20323;-88
2022/05/15 15:00:10;;;;;;;1.40;1.30;;;23.50;89.50;;;;;;6283835;22;20402;-90
2022/05/15 15:02:41;;;;;;;2.88;1.33;;;23.50;87.40;;;;;;6258122;22;20016;-92
2022/05/15 15:05:18;;;;;;;2.63;1.73;;;23.50;88.00;;;;;;6252637;22;20450;-88
2022/05/15 15:07:47;;;;;;;11.38;2.72;;;23.50;86.00;;;;;;6221052;22;20022;-90
2022/05/15 15:10:14;;;;;;;1.20;1.20;;;23.50;85.20;;;;;;6223323;22;20348;-90